sensor_id;sensor_type;location;lat;lon;timestamp;temperature;humidity
18392;DHT22;9322;50.932;5.318;2023-04-25T00:01:21;8.30;1.40
18392;DHT22;9322;50.932;5.318;2023-04-25T00:03:50;8.30;1.40
18392;DHT22;9322;50.932;5.318;2023-04-25T00:06:16;8.30;1.40
18392;DHT22;9322;50.932;5.318;2023-04-25T00:08:43;8.30;1.40
18392;DHT22;9322;50.932;5.318;2023-04-25T00:11:09;8.30;1.40
18392;DHT22;9322;50.932;5.318;2023-04-25T00:13:35;8.30;1.40
18392;DHT22;9322;50.932;5.318;2023-04-25T00:16:01;8.30;1.40
18392;DHT22;9322;50.932;5.318;2023-04-25T00:18:28;8.40;1.40
18392;DHT22;9322;50.932;5.318;2023-04-25T00:20:58;8.40;1.40
18392;DHT22;9322;50.932;5.318;2023-04-25T00:23:24;8.40;1.40
18392;DHT22;9322;50.932;5.318;2023-04-25T00:25:50;8.30;1.40
18392;DHT22;9322;50.932;5.318;2023-04-25T00:28:16;8.30;1.40
18392;DHT22;9322;50.932;5.318;2023-04-25T00:30:42;8.30;1.40
18392;DHT22;9322;50.932;5.318;2023-04-25T00:33:09;8.40;1.40
18392;DHT22;9322;50.932;5.318;2023-04-25T00:35:35;8.30;1.40
18392;DHT22;9322;50.932;5.318;2023-04-25T00:38:01;8.30;1.40
18392;DHT22;9322;50.932;5.318;2023-04-25T00:40:27;8.20;1.40
18392;DHT22;9322;50.932;5.318;2023-04-25T00:42:53;8.20;1.40
18392;DHT22;9322;50.932;5.318;2023-04-25T00:45:19;8.20;1.40
18392;DHT22;9322;50.932;5.318;2023-04-25T00:47:46;8.30;1.40
18392;DHT22;9322;50.932;5.318;2023-04-25T00:50:15;8.30;1.40
18392;DHT22;9322;50.932;5.318;2023-04-25T00:52:43;8.40;1.40
18392;DHT22;9322;50.932;5.318;2023-04-25T00:55:11;8.40;1.40
18392;DHT22;9322;50.932;5.318;2023-04-25T00:57:38;8.30;1.40
18392;DHT22;9322;50.932;5.318;2023-04-25T01:00:06;8.30;1.40
18392;DHT22;9322;50.932;5.318;2023-04-25T01:02:33;8.20;1.40
18392;DHT22;9322;50.932;5.318;2023-04-25T01:04:59;8.30;1.40
18392;DHT22;9322;50.932;5.318;2023-04-25T01:07:25;8.30;1.40
18392;DHT22;9322;50.932;5.318;2023-04-25T01:09:54;8.20;1.40
18392;DHT22;9322;50.932;5.318;2023-04-25T01:12:20;8.20;1.40
18392;DHT22;9322;50.932;5.318;2023-04-25T01:14:46;8.10;1.40
18392;DHT22;9322;50.932;5.318;2023-04-25T01:17:12;8.10;1.40
18392;DHT22;9322;50.932;5.318;2023-04-25T01:19:38;8.20;1.40
18392;DHT22;9322;50.932;5.318;2023-04-25T01:22:04;8.20;1.40
18392;DHT22;9322;50.932;5.318;2023-04-25T01:24:32;8.20;1.40
18392;DHT22;9322;50.932;5.318;2023-04-25T01:26:59;8.20;1.40
18392;DHT22;9322;50.932;5.318;2023-04-25T01:29:26;8.20;1.40
18392;DHT22;9322;50.932;5.318;2023-04-25T01:31:52;8.20;1.40
18392;DHT22;9322;50.932;5.318;2023-04-25T01:34:18;8.20;1.40
18392;DHT22;9322;50.932;5.318;2023-04-25T01:36:45;8.10;1.40
18392;DHT22;9322;50.932;5.318;2023-04-25T01:39:11;8.10;1.40
18392;DHT22;9322;50.932;5.318;2023-04-25T01:41:37;8.00;1.40
18392;DHT22;9322;50.932;5.318;2023-04-25T01:44:03;8.10;1.40
18392;DHT22;9322;50.932;5.318;2023-04-25T01:46:29;8.10;1.40
18392;DHT22;9322;50.932;5.318;2023-04-25T01:48:56;8.20;1.40
18392;DHT22;9322;50.932;5.318;2023-04-25T01:51:21;8.10;1.40
18392;DHT22;9322;50.932;5.318;2023-04-25T01:53:47;8.00;1.40
18392;DHT22;9322;50.932;5.318;2023-04-25T01:56:13;8.10;1.40
18392;DHT22;9322;50.932;5.318;2023-04-25T01:58:39;8.10;1.40
18392;DHT22;9322;50.932;5.318;2023-04-25T02:01:04;8.20;1.40
18392;DHT22;9322;50.932;5.318;2023-04-25T02:03:31;8.10;1.40
18392;DHT22;9322;50.932;5.318;2023-04-25T02:05:57;8.10;1.40
18392;DHT22;9322;50.932;5.318;2023-04-25T02:08:23;8.10;1.40
18392;DHT22;9322;50.932;5.318;2023-04-25T02:10:51;8.10;1.40
18392;DHT22;9322;50.932;5.318;2023-04-25T02:13:17;8.10;1.40
18392;DHT22;9322;50.932;5.318;2023-04-25T02:15:42;8.00;1.40
18392;DHT22;9322;50.932;5.318;2023-04-25T02:18:08;7.90;1.40
18392;DHT22;9322;50.932;5.318;2023-04-25T02:20:36;7.90;1.40
18392;DHT22;9322;50.932;5.318;2023-04-25T02:23:02;7.90;1.40
18392;DHT22;9322;50.932;5.318;2023-04-25T02:25:28;7.90;1.40
18392;DHT22;9322;50.932;5.318;2023-04-25T02:27:54;7.90;1.40
18392;DHT22;9322;50.932;5.318;2023-04-25T02:30:20;7.90;1.40
18392;DHT22;9322;50.932;5.318;2023-04-25T02:32:46;8.00;1.40
18392;DHT22;9322;50.932;5.318;2023-04-25T02:35:12;7.90;1.40
18392;DHT22;9322;50.932;5.318;2023-04-25T02:37:38;8.00;1.40
18392;DHT22;9322;50.932;5.318;2023-04-25T02:40:05;7.90;1.40
18392;DHT22;9322;50.932;5.318;2023-04-25T02:42:31;7.90;1.40
18392;DHT22;9322;50.932;5.318;2023-04-25T02:44:57;7.80;1.40
18392;DHT22;9322;50.932;5.318;2023-04-25T02:47:22;7.90;1.40
18392;DHT22;9322;50.932;5.318;2023-04-25T02:49:48;7.90;1.40
18392;DHT22;9322;50.932;5.318;2023-04-25T02:52:14;7.90;1.40
18392;DHT22;9322;50.932;5.318;2023-04-25T02:54:40;7.90;1.40
18392;DHT22;9322;50.932;5.318;2023-04-25T02:57:06;7.90;1.40
18392;DHT22;9322;50.932;5.318;2023-04-25T02:59:32;7.90;1.40
18392;DHT22;9322;50.932;5.318;2023-04-25T03:01:58;7.90;1.40
18392;DHT22;9322;50.932;5.318;2023-04-25T03:04:23;7.90;1.40
18392;DHT22;9322;50.932;5.318;2023-04-25T03:06:52;7.80;1.40
18392;DHT22;9322;50.932;5.318;2023-04-25T03:09:18;7.90;1.40
18392;DHT22;9322;50.932;5.318;2023-04-25T03:11:45;7.90;1.40
18392;DHT22;9322;50.932;5.318;2023-04-25T03:14:11;7.80;1.40
18392;DHT22;9322;50.932;5.318;2023-04-25T03:16:37;7.90;1.40
18392;DHT22;9322;50.932;5.318;2023-04-25T03:19:04;7.90;1.40
18392;DHT22;9322;50.932;5.318;2023-04-25T03:21:34;7.80;1.40
18392;DHT22;9322;50.932;5.318;2023-04-25T03:24:02;7.90;1.40
18392;DHT22;9322;50.932;5.318;2023-04-25T03:26:28;7.90;1.40
18392;DHT22;9322;50.932;5.318;2023-04-25T03:28:53;7.90;1.40
18392;DHT22;9322;50.932;5.318;2023-04-25T03:31:19;7.80;1.40
18392;DHT22;9322;50.932;5.318;2023-04-25T03:33:45;7.80;1.40
18392;DHT22;9322;50.932;5.318;2023-04-25T03:36:11;7.80;1.40
18392;DHT22;9322;50.932;5.318;2023-04-25T03:38:36;7.90;1.40
18392;DHT22;9322;50.932;5.318;2023-04-25T03:41:02;7.80;1.40
18392;DHT22;9322;50.932;5.318;2023-04-25T03:43:28;7.80;1.40
18392;DHT22;9322;50.932;5.318;2023-04-25T03:45:54;7.70;1.40
18392;DHT22;9322;50.932;5.318;2023-04-25T03:48:20;7.70;1.40
18392;DHT22;9322;50.932;5.318;2023-04-25T03:50:50;7.80;1.40
18392;DHT22;9322;50.932;5.318;2023-04-25T03:53:16;7.80;1.40
18392;DHT22;9322;50.932;5.318;2023-04-25T03:55:41;7.80;1.40
18392;DHT22;9322;50.932;5.318;2023-04-25T03:58:07;7.60;1.40
18392;DHT22;9322;50.932;5.318;2023-04-25T04:00:34;7.60;1.40
18392;DHT22;9322;50.932;5.318;2023-04-25T04:03:00;7.70;1.40
18392;DHT22;9322;50.932;5.318;2023-04-25T04:05:26;7.70;1.40
18392;DHT22;9322;50.932;5.318;2023-04-25T04:07:53;7.50;1.40
18392;DHT22;9322;50.932;5.318;2023-04-25T04:10:19;7.30;1.40
18392;DHT22;9322;50.932;5.318;2023-04-25T04:12:44;7.30;1.40
18392;DHT22;9322;50.932;5.318;2023-04-25T04:15:10;7.20;1.40
18392;DHT22;9322;50.932;5.318;2023-04-25T04:17:37;7.30;1.40
18392;DHT22;9322;50.932;5.318;2023-04-25T04:20:03;7.10;1.40
18392;DHT22;9322;50.932;5.318;2023-04-25T04:22:29;7.00;1.40
18392;DHT22;9322;50.932;5.318;2023-04-25T04:24:55;7.00;1.40
18392;DHT22;9322;50.932;5.318;2023-04-25T04:27:22;7.00;1.40
18392;DHT22;9322;50.932;5.318;2023-04-25T04:29:49;7.00;1.40
18392;DHT22;9322;50.932;5.318;2023-04-25T04:32:16;7.00;1.40
18392;DHT22;9322;50.932;5.318;2023-04-25T04:34:42;7.00;1.40
18392;DHT22;9322;50.932;5.318;2023-04-25T04:37:08;7.10;1.40
18392;DHT22;9322;50.932;5.318;2023-04-25T04:39:35;7.10;1.40
18392;DHT22;9322;50.932;5.318;2023-04-25T04:42:02;7.10;1.40
18392;DHT22;9322;50.932;5.318;2023-04-25T04:44:29;7.20;1.40
18392;DHT22;9322;50.932;5.318;2023-04-25T04:46:58;7.10;1.40
18392;DHT22;9322;50.932;5.318;2023-04-25T04:49:24;7.10;1.40
18392;DHT22;9322;50.932;5.318;2023-04-25T04:51:50;7.10;1.40
18392;DHT22;9322;50.932;5.318;2023-04-25T04:54:16;7.10;1.40
18392;DHT22;9322;50.932;5.318;2023-04-25T04:56:42;7.20;1.40
18392;DHT22;9322;50.932;5.318;2023-04-25T04:59:08;7.20;1.40
18392;DHT22;9322;50.932;5.318;2023-04-25T05:01:34;7.30;1.40
18392;DHT22;9322;50.932;5.318;2023-04-25T05:04:03;7.40;1.40
18392;DHT22;9322;50.932;5.318;2023-04-25T05:06:29;7.40;1.40
18392;DHT22;9322;50.932;5.318;2023-04-25T05:08:57;7.40;1.40
18392;DHT22;9322;50.932;5.318;2023-04-25T05:11:23;7.50;1.40
18392;DHT22;9322;50.932;5.318;2023-04-25T05:13:51;7.50;1.40
18392;DHT22;9322;50.932;5.318;2023-04-25T05:16:18;7.60;1.40
18392;DHT22;9322;50.932;5.318;2023-04-25T05:18:43;7.60;1.40
18392;DHT22;9322;50.932;5.318;2023-04-25T05:21:09;7.60;1.40
18392;DHT22;9322;50.932;5.318;2023-04-25T05:23:35;7.60;1.40
18392;DHT22;9322;50.932;5.318;2023-04-25T05:26:00;7.70;1.40
18392;DHT22;9322;50.932;5.318;2023-04-25T05:28:26;7.70;1.40
18392;DHT22;9322;50.932;5.318;2023-04-25T05:30:52;7.70;1.40
18392;DHT22;9322;50.932;5.318;2023-04-25T05:33:18;7.70;1.40
18392;DHT22;9322;50.932;5.318;2023-04-25T05:35:44;8.00;1.40
18392;DHT22;9322;50.932;5.318;2023-04-25T05:38:10;8.00;1.40
18392;DHT22;9322;50.932;5.318;2023-04-25T05:40:36;8.10;1.40
18392;DHT22;9322;50.932;5.318;2023-04-25T05:43:01;8.20;1.40
18392;DHT22;9322;50.932;5.318;2023-04-25T05:45:27;8.20;1.40
18392;DHT22;9322;50.932;5.318;2023-04-25T05:47:53;8.30;1.40
18392;DHT22;9322;50.932;5.318;2023-04-25T05:50:18;8.30;1.40
18392;DHT22;9322;50.932;5.318;2023-04-25T05:52:44;8.40;1.40
18392;DHT22;9322;50.932;5.318;2023-04-25T05:55:10;8.50;1.40
18392;DHT22;9322;50.932;5.318;2023-04-25T05:57:36;8.50;1.40
18392;DHT22;9322;50.932;5.318;2023-04-25T06:00:02;8.50;1.40
18392;DHT22;9322;50.932;5.318;2023-04-25T06:02:29;8.60;1.40
18392;DHT22;9322;50.932;5.318;2023-04-25T06:04:55;8.50;1.40
18392;DHT22;9322;50.932;5.318;2023-04-25T06:07:21;8.60;1.40
18392;DHT22;9322;50.932;5.318;2023-04-25T06:09:47;8.60;1.40
18392;DHT22;9322;50.932;5.318;2023-04-25T06:12:12;8.70;1.40
18392;DHT22;9322;50.932;5.318;2023-04-25T06:14:38;8.60;1.40
18392;DHT22;9322;50.932;5.318;2023-04-25T06:17:04;8.70;1.40
18392;DHT22;9322;50.932;5.318;2023-04-25T06:19:34;8.80;1.40
18392;DHT22;9322;50.932;5.318;2023-04-25T06:22:01;8.80;1.40
18392;DHT22;9322;50.932;5.318;2023-04-25T06:24:27;8.80;1.40
18392;DHT22;9322;50.932;5.318;2023-04-25T06:26:53;9.00;1.40
18392;DHT22;9322;50.932;5.318;2023-04-25T06:29:19;8.90;1.40
18392;DHT22;9322;50.932;5.318;2023-04-25T06:31:44;9.10;1.40
18392;DHT22;9322;50.932;5.318;2023-04-25T06:34:10;9.20;1.40
18392;DHT22;9322;50.932;5.318;2023-04-25T06:36:36;9.30;1.40
18392;DHT22;9322;50.932;5.318;2023-04-25T06:39:02;9.40;1.40
18392;DHT22;9322;50.932;5.318;2023-04-25T06:41:28;9.50;1.40
18392;DHT22;9322;50.932;5.318;2023-04-25T06:43:53;9.60;1.40
18392;DHT22;9322;50.932;5.318;2023-04-25T06:46:19;9.60;1.40
18392;DHT22;9322;50.932;5.318;2023-04-25T06:48:45;9.60;1.40
18392;DHT22;9322;50.932;5.318;2023-04-25T06:51:11;9.70;1.40
18392;DHT22;9322;50.932;5.318;2023-04-25T06:53:38;9.40;1.40
18392;DHT22;9322;50.932;5.318;2023-04-25T06:56:04;9.60;1.40
18392;DHT22;9322;50.932;5.318;2023-04-25T06:58:30;9.60;1.40
18392;DHT22;9322;50.932;5.318;2023-04-25T07:00:56;9.60;1.40
18392;DHT22;9322;50.932;5.318;2023-04-25T07:03:21;9.70;1.40
18392;DHT22;9322;50.932;5.318;2023-04-25T07:05:47;9.70;1.40
18392;DHT22;9322;50.932;5.318;2023-04-25T07:08:13;9.80;1.40
18392;DHT22;9322;50.932;5.318;2023-04-25T07:10:39;9.70;1.40
18392;DHT22;9322;50.932;5.318;2023-04-25T07:13:05;9.70;1.40
18392;DHT22;9322;50.932;5.318;2023-04-25T07:15:31;9.80;1.40
18392;DHT22;9322;50.932;5.318;2023-04-25T07:17:56;9.60;1.40
18392;DHT22;9322;50.932;5.318;2023-04-25T07:20:22;9.60;1.40
18392;DHT22;9322;50.932;5.318;2023-04-25T07:22:48;9.70;1.40
18392;DHT22;9322;50.932;5.318;2023-04-25T07:25:13;10.20;1.40
18392;DHT22;9322;50.932;5.318;2023-04-25T07:27:39;10.60;1.40
18392;DHT22;9322;50.932;5.318;2023-04-25T07:30:06;10.80;1.40
18392;DHT22;9322;50.932;5.318;2023-04-25T07:32:32;11.20;1.40
18392;DHT22;9322;50.932;5.318;2023-04-25T07:34:58;11.20;1.40
18392;DHT22;9322;50.932;5.318;2023-04-25T07:37:23;11.90;1.40
18392;DHT22;9322;50.932;5.318;2023-04-25T07:39:50;12.00;1.40
18392;DHT22;9322;50.932;5.318;2023-04-25T07:42:16;11.80;1.40
18392;DHT22;9322;50.932;5.318;2023-04-25T07:44:41;12.10;1.40
18392;DHT22;9322;50.932;5.318;2023-04-25T07:47:08;11.70;1.40
18392;DHT22;9322;50.932;5.318;2023-04-25T07:49:34;11.50;1.40
18392;DHT22;9322;50.932;5.318;2023-04-25T07:52:01;11.40;1.40
18392;DHT22;9322;50.932;5.318;2023-04-25T07:54:27;11.00;1.40
18392;DHT22;9322;50.932;5.318;2023-04-25T07:56:53;11.00;1.40
18392;DHT22;9322;50.932;5.318;2023-04-25T07:59:19;10.90;1.40
18392;DHT22;9322;50.932;5.318;2023-04-25T08:01:45;10.90;1.40
18392;DHT22;9322;50.932;5.318;2023-04-25T08:04:11;10.70;1.40
18392;DHT22;9322;50.932;5.318;2023-04-25T08:06:37;10.70;1.40
18392;DHT22;9322;50.932;5.318;2023-04-25T08:09:03;10.60;1.40
18392;DHT22;9322;50.932;5.318;2023-04-25T08:11:29;10.70;1.40
18392;DHT22;9322;50.932;5.318;2023-04-25T08:13:55;10.70;1.40
18392;DHT22;9322;50.932;5.318;2023-04-25T08:16:21;11.00;1.40
18392;DHT22;9322;50.932;5.318;2023-04-25T08:18:47;11.30;1.40
18392;DHT22;9322;50.932;5.318;2023-04-25T08:21:12;11.40;1.40
18392;DHT22;9322;50.932;5.318;2023-04-25T08:23:39;11.40;1.40
18392;DHT22;9322;50.932;5.318;2023-04-25T08:26:05;11.70;1.40
18392;DHT22;9322;50.932;5.318;2023-04-25T08:28:31;11.80;1.40
18392;DHT22;9322;50.932;5.318;2023-04-25T08:30:57;11.90;1.40
18392;DHT22;9322;50.932;5.318;2023-04-25T08:33:23;11.80;1.40
18392;DHT22;9322;50.932;5.318;2023-04-25T08:35:48;11.70;1.40
18392;DHT22;9322;50.932;5.318;2023-04-25T08:38:14;11.50;1.40
18392;DHT22;9322;50.932;5.318;2023-04-25T08:40:40;11.10;1.40
18392;DHT22;9322;50.932;5.318;2023-04-25T08:43:07;11.10;1.40
18392;DHT22;9322;50.932;5.318;2023-04-25T08:45:39;10.80;1.40
18392;DHT22;9322;50.932;5.318;2023-04-25T08:48:10;10.80;1.40
18392;DHT22;9322;50.932;5.318;2023-04-25T08:50:45;10.40;1.40
18392;DHT22;9322;50.932;5.318;2023-04-25T08:53:12;10.30;1.40
18392;DHT22;9322;50.932;5.318;2023-04-25T08:55:45;10.30;1.40
18392;DHT22;9322;50.932;5.318;2023-04-25T08:58:12;10.40;1.40
18392;DHT22;9322;50.932;5.318;2023-04-25T09:00:38;10.30;1.40
18392;DHT22;9322;50.932;5.318;2023-04-25T09:03:05;10.70;1.40
18392;DHT22;9322;50.932;5.318;2023-04-25T09:05:33;10.90;1.40
18392;DHT22;9322;50.932;5.318;2023-04-25T09:07:58;10.90;1.40
18392;DHT22;9322;50.932;5.318;2023-04-25T09:10:26;11.10;1.40
18392;DHT22;9322;50.932;5.318;2023-04-25T09:13:14;11.70;1.40
18392;DHT22;9322;50.932;5.318;2023-04-25T09:18:37;12.30;1.40
18392;DHT22;9322;50.932;5.318;2023-04-25T09:21:12;12.60;1.40
18392;DHT22;9322;50.932;5.318;2023-04-25T09:23:46;12.80;1.40
18392;DHT22;9322;50.932;5.318;2023-04-25T09:26:20;13.30;1.40
18392;DHT22;9322;50.932;5.318;2023-04-25T09:28:46;14.40;1.40
18392;DHT22;9322;50.932;5.318;2023-04-25T09:31:24;16.20;1.40
18392;DHT22;9322;50.932;5.318;2023-04-25T09:33:59;17.40;1.40
18392;DHT22;9322;50.932;5.318;2023-04-25T09:36:27;18.70;1.40
18392;DHT22;9322;50.932;5.318;2023-04-25T09:38:53;19.20;1.40
18392;DHT22;9322;50.932;5.318;2023-04-25T09:41:23;18.70;1.40
18392;DHT22;9322;50.932;5.318;2023-04-25T09:43:49;17.60;1.40
18392;DHT22;9322;50.932;5.318;2023-04-25T09:46:16;18.60;1.40
18392;DHT22;9322;50.932;5.318;2023-04-25T09:48:49;20.00;1.40
18392;DHT22;9322;50.932;5.318;2023-04-25T09:51:15;20.10;1.40
18392;DHT22;9322;50.932;5.318;2023-04-25T09:53:43;21.60;1.40
18392;DHT22;9322;50.932;5.318;2023-04-25T09:56:10;21.90;1.40
18392;DHT22;9322;50.932;5.318;2023-04-25T09:58:38;23.80;1.40
18392;DHT22;9322;50.932;5.318;2023-04-25T10:01:06;24.10;1.40
18392;DHT22;9322;50.932;5.318;2023-04-25T10:03:37;21.50;1.40
18392;DHT22;9322;50.932;5.318;2023-04-25T10:06:12;19.50;1.40
18392;DHT22;9322;50.932;5.318;2023-04-25T10:08:40;19.00;1.40
18392;DHT22;9322;50.932;5.318;2023-04-25T10:11:08;19.10;1.40
18392;DHT22;9322;50.932;5.318;2023-04-25T10:13:35;20.10;1.40
18392;DHT22;9322;50.932;5.318;2023-04-25T10:16:03;20.30;1.40
18392;DHT22;9322;50.932;5.318;2023-04-25T10:18:30;17.80;1.40
18392;DHT22;9322;50.932;5.318;2023-04-25T10:20:59;15.70;1.40
18392;DHT22;9322;50.932;5.318;2023-04-25T10:23:25;14.70;1.40
18392;DHT22;9322;50.932;5.318;2023-04-25T10:25:52;14.20;1.40
18392;DHT22;9322;50.932;5.318;2023-04-25T10:28:19;13.70;1.40
18392;DHT22;9322;50.932;5.318;2023-04-25T10:31:02;13.50;1.40
18392;DHT22;9322;50.932;5.318;2023-04-25T10:33:40;13.00;1.40
18392;DHT22;9322;50.932;5.318;2023-04-25T10:36:19;12.60;1.40
18392;DHT22;9322;50.932;5.318;2023-04-25T10:38:47;12.30;1.40
18392;DHT22;9322;50.932;5.318;2023-04-25T10:41:14;12.00;1.40
18392;DHT22;9322;50.932;5.318;2023-04-25T10:43:43;12.60;1.40
18392;DHT22;9322;50.932;5.318;2023-04-25T10:46:26;13.40;1.40
18392;DHT22;9322;50.932;5.318;2023-04-25T10:48:59;15.50;1.40
18392;DHT22;9322;50.932;5.318;2023-04-25T10:51:36;17.60;1.40
18392;DHT22;9322;50.932;5.318;2023-04-25T10:54:04;18.30;1.40
18392;DHT22;9322;50.932;5.318;2023-04-25T10:56:41;18.20;1.40
18392;DHT22;9322;50.932;5.318;2023-04-25T10:59:09;18.30;1.40
18392;DHT22;9322;50.932;5.318;2023-04-25T11:01:38;17.60;1.40
18392;DHT22;9322;50.932;5.318;2023-04-25T11:04:04;17.60;1.40
18392;DHT22;9322;50.932;5.318;2023-04-25T11:09:28;16.00;1.40
18392;DHT22;9322;50.932;5.318;2023-04-25T11:11:58;15.70;1.40
18392;DHT22;9322;50.932;5.318;2023-04-25T11:14:24;16.40;1.40
18392;DHT22;9322;50.932;5.318;2023-04-25T11:16:54;18.90;1.40
18392;DHT22;9322;50.932;5.318;2023-04-25T11:19:21;19.00;1.40
18392;DHT22;9322;50.932;5.318;2023-04-25T11:21:47;20.30;1.40
18392;DHT22;9322;50.932;5.318;2023-04-25T11:24:13;20.40;1.40
18392;DHT22;9322;50.932;5.318;2023-04-25T11:26:41;20.20;1.40
18392;DHT22;9322;50.932;5.318;2023-04-25T11:29:08;20.70;1.40
18392;DHT22;9322;50.932;5.318;2023-04-25T11:31:34;21.50;1.40
18392;DHT22;9322;50.932;5.318;2023-04-25T11:33:59;20.90;1.40
18392;DHT22;9322;50.932;5.318;2023-04-25T11:36:26;20.30;1.40
18392;DHT22;9322;50.932;5.318;2023-04-25T11:38:53;21.70;1.40
18392;DHT22;9322;50.932;5.318;2023-04-25T11:41:19;22.80;1.40
18392;DHT22;9322;50.932;5.318;2023-04-25T11:43:45;22.70;1.40
18392;DHT22;9322;50.932;5.318;2023-04-25T11:46:11;23.40;1.40
18392;DHT22;9322;50.932;5.318;2023-04-25T11:48:39;22.50;1.40
18392;DHT22;9322;50.932;5.318;2023-04-25T11:51:05;21.90;1.40
18392;DHT22;9322;50.932;5.318;2023-04-25T11:53:30;21.70;1.40
18392;DHT22;9322;50.932;5.318;2023-04-25T11:55:56;22.00;1.40
18392;DHT22;9322;50.932;5.318;2023-04-25T11:58:22;21.90;1.40
18392;DHT22;9322;50.932;5.318;2023-04-25T12:00:48;21.40;1.40
18392;DHT22;9322;50.932;5.318;2023-04-25T12:03:14;21.00;1.40
18392;DHT22;9322;50.932;5.318;2023-04-25T12:05:39;20.30;1.40
18392;DHT22;9322;50.932;5.318;2023-04-25T12:08:15;19.90;1.40
18392;DHT22;9322;50.932;5.318;2023-04-25T12:10:43;20.20;1.40
18392;DHT22;9322;50.932;5.318;2023-04-25T12:13:24;18.70;1.40
18392;DHT22;9322;50.932;5.318;2023-04-25T12:15:50;17.80;1.40
18392;DHT22;9322;50.932;5.318;2023-04-25T12:18:20;17.10;1.40
18392;DHT22;9322;50.932;5.318;2023-04-25T12:20:46;16.50;1.40
18392;DHT22;9322;50.932;5.318;2023-04-25T12:23:12;15.40;1.40
18392;DHT22;9322;50.932;5.318;2023-04-25T12:25:42;14.30;1.40
18392;DHT22;9322;50.932;5.318;2023-04-25T12:28:14;13.80;1.40
18392;DHT22;9322;50.932;5.318;2023-04-25T12:31:03;13.00;1.40
18392;DHT22;9322;50.932;5.318;2023-04-25T12:33:31;12.50;1.40
18392;DHT22;9322;50.932;5.318;2023-04-25T12:35:58;12.30;1.40
18392;DHT22;9322;50.932;5.318;2023-04-25T12:38:26;12.40;1.40
18392;DHT22;9322;50.932;5.318;2023-04-25T12:40:53;12.10;1.40
18392;DHT22;9322;50.932;5.318;2023-04-25T12:43:19;12.30;1.40
18392;DHT22;9322;50.932;5.318;2023-04-25T12:45:48;12.50;1.40
18392;DHT22;9322;50.932;5.318;2023-04-25T12:48:14;12.60;1.40
18392;DHT22;9322;50.932;5.318;2023-04-25T12:50:40;12.50;1.40
18392;DHT22;9322;50.932;5.318;2023-04-25T12:53:06;13.00;1.40
18392;DHT22;9322;50.932;5.318;2023-04-25T12:55:32;13.20;1.40
18392;DHT22;9322;50.932;5.318;2023-04-25T12:57:57;13.80;1.40
18392;DHT22;9322;50.932;5.318;2023-04-25T13:00:23;14.40;1.40
18392;DHT22;9322;50.932;5.318;2023-04-25T13:02:50;15.30;1.40
18392;DHT22;9322;50.932;5.318;2023-04-25T13:05:15;15.60;1.40
18392;DHT22;9322;50.932;5.318;2023-04-25T13:07:41;16.00;1.40
18392;DHT22;9322;50.932;5.318;2023-04-25T13:10:07;16.10;1.40
18392;DHT22;9322;50.932;5.318;2023-04-25T13:12:33;16.20;1.40
18392;DHT22;9322;50.932;5.318;2023-04-25T13:14:58;15.80;1.40
18392;DHT22;9322;50.932;5.318;2023-04-25T13:17:24;15.10;1.40
18392;DHT22;9322;50.932;5.318;2023-04-25T13:19:50;14.70;1.40
18392;DHT22;9322;50.932;5.318;2023-04-25T13:22:16;14.80;1.40
18392;DHT22;9322;50.932;5.318;2023-04-25T13:24:42;14.80;1.40
18392;DHT22;9322;50.932;5.318;2023-04-25T13:27:08;14.50;1.40
18392;DHT22;9322;50.932;5.318;2023-04-25T13:29:34;13.90;1.40
18392;DHT22;9322;50.932;5.318;2023-04-25T13:32:01;13.90;1.40
18392;DHT22;9322;50.932;5.318;2023-04-25T13:34:28;13.50;1.40
18392;DHT22;9322;50.932;5.318;2023-04-25T13:36:54;13.30;1.40
18392;DHT22;9322;50.932;5.318;2023-04-25T13:39:20;13.40;1.40
18392;DHT22;9322;50.932;5.318;2023-04-25T13:41:45;13.80;1.40
18392;DHT22;9322;50.932;5.318;2023-04-25T13:44:11;14.10;1.40
18392;DHT22;9322;50.932;5.318;2023-04-25T13:46:37;14.70;1.40
18392;DHT22;9322;50.932;5.318;2023-04-25T13:49:03;15.40;1.40
18392;DHT22;9322;50.932;5.318;2023-04-25T13:51:29;15.60;1.40
18392;DHT22;9322;50.932;5.318;2023-04-25T13:53:56;15.70;1.40
18392;DHT22;9322;50.932;5.318;2023-04-25T13:56:22;15.50;1.40
18392;DHT22;9322;50.932;5.318;2023-04-25T13:58:50;15.60;1.40
18392;DHT22;9322;50.932;5.318;2023-04-25T14:01:15;15.00;1.40
18392;DHT22;9322;50.932;5.318;2023-04-25T14:03:41;14.70;1.40
18392;DHT22;9322;50.932;5.318;2023-04-25T14:06:07;14.10;1.40
18392;DHT22;9322;50.932;5.318;2023-04-25T14:08:34;14.00;1.40
18392;DHT22;9322;50.932;5.318;2023-04-25T14:11:00;13.60;1.40
18392;DHT22;9322;50.932;5.318;2023-04-25T14:13:26;13.20;1.40
18392;DHT22;9322;50.932;5.318;2023-04-25T14:15:52;12.90;1.40
18392;DHT22;9322;50.932;5.318;2023-04-25T14:18:18;12.90;1.40
18392;DHT22;9322;50.932;5.318;2023-04-25T14:20:44;12.80;1.40
18392;DHT22;9322;50.932;5.318;2023-04-25T14:23:10;13.00;1.40
18392;DHT22;9322;50.932;5.318;2023-04-25T14:25:36;13.30;1.40
18392;DHT22;9322;50.932;5.318;2023-04-25T14:28:02;13.80;1.40
18392;DHT22;9322;50.932;5.318;2023-04-25T14:30:28;14.20;1.40
18392;DHT22;9322;50.932;5.318;2023-04-25T14:32:54;14.70;1.40
18392;DHT22;9322;50.932;5.318;2023-04-25T14:35:19;14.40;1.40
18392;DHT22;9322;50.932;5.318;2023-04-25T14:37:46;13.90;1.40
18392;DHT22;9322;50.932;5.318;2023-04-25T14:40:12;13.80;1.40
18392;DHT22;9322;50.932;5.318;2023-04-25T14:42:40;14.10;1.40
18392;DHT22;9322;50.932;5.318;2023-04-25T14:45:07;14.00;1.40
18392;DHT22;9322;50.932;5.318;2023-04-25T14:47:34;13.70;1.40
18392;DHT22;9322;50.932;5.318;2023-04-25T14:50:01;13.50;1.40
18392;DHT22;9322;50.932;5.318;2023-04-25T14:52:27;13.40;1.40
18392;DHT22;9322;50.932;5.318;2023-04-25T14:54:53;13.10;1.40
18392;DHT22;9322;50.932;5.318;2023-04-25T14:57:18;13.20;1.40
18392;DHT22;9322;50.932;5.318;2023-04-25T14:59:44;13.40;1.40
18392;DHT22;9322;50.932;5.318;2023-04-25T15:02:11;13.80;1.40
18392;DHT22;9322;50.932;5.318;2023-04-25T15:04:36;13.40;1.40
18392;DHT22;9322;50.932;5.318;2023-04-25T15:07:02;13.40;1.40
18392;DHT22;9322;50.932;5.318;2023-04-25T15:09:29;13.40;1.40
18392;DHT22;9322;50.932;5.318;2023-04-25T15:11:55;13.50;1.40
18392;DHT22;9322;50.932;5.318;2023-04-25T15:14:20;13.20;1.40
18392;DHT22;9322;50.932;5.318;2023-04-25T15:16:46;12.90;1.40
18392;DHT22;9322;50.932;5.318;2023-04-25T15:19:12;13.00;1.40
18392;DHT22;9322;50.932;5.318;2023-04-25T15:21:37;13.20;1.40
18392;DHT22;9322;50.932;5.318;2023-04-25T15:24:03;13.00;1.40
18392;DHT22;9322;50.932;5.318;2023-04-25T15:26:29;12.80;1.40
18392;DHT22;9322;50.932;5.318;2023-04-25T15:28:54;12.80;1.40
18392;DHT22;9322;50.932;5.318;2023-04-25T15:31:22;12.90;1.40
18392;DHT22;9322;50.932;5.318;2023-04-25T15:33:47;13.00;1.40
18392;DHT22;9322;50.932;5.318;2023-04-25T15:36:13;13.10;1.40
18392;DHT22;9322;50.932;5.318;2023-04-25T15:38:41;12.80;1.40
18392;DHT22;9322;50.932;5.318;2023-04-25T15:41:07;12.60;1.40
18392;DHT22;9322;50.932;5.318;2023-04-25T15:43:33;12.80;1.40
18392;DHT22;9322;50.932;5.318;2023-04-25T15:46:02;12.90;1.40
18392;DHT22;9322;50.932;5.318;2023-04-25T15:48:28;12.60;1.40
18392;DHT22;9322;50.932;5.318;2023-04-25T15:50:54;12.30;1.40
18392;DHT22;9322;50.932;5.318;2023-04-25T15:53:19;12.10;1.40
18392;DHT22;9322;50.932;5.318;2023-04-25T15:55:45;12.20;1.40
18392;DHT22;9322;50.932;5.318;2023-04-25T15:58:11;12.10;1.40
18392;DHT22;9322;50.932;5.318;2023-04-25T16:00:37;12.30;1.40
18392;DHT22;9322;50.932;5.318;2023-04-25T16:03:04;12.30;1.40
18392;DHT22;9322;50.932;5.318;2023-04-25T16:05:30;12.50;1.40
18392;DHT22;9322;50.932;5.318;2023-04-25T16:07:56;12.50;1.40
18392;DHT22;9322;50.932;5.318;2023-04-25T16:10:22;12.50;1.40
18392;DHT22;9322;50.932;5.318;2023-04-25T16:12:49;12.50;1.40